sensor_id;sensor_type;location;lat;lon;timestamp;P1;durP1;ratioP1;P2;durP2;ratioP2
76103;SDS011;64831;44.870;37.336;2022-11-20T00:01:18;44.13;;;17.80;;
76103;SDS011;64831;44.870;37.336;2022-11-20T00:03:50;33.33;;;15.88;;
76103;SDS011;64831;44.870;37.336;2022-11-20T00:06:19;42.75;;;17.58;;
76103;SDS011;64831;44.870;37.336;2022-11-20T00:08:46;37.17;;;16.13;;
76103;SDS011;64831;44.870;37.336;2022-11-20T00:11:16;34.42;;;16.02;;
76103;SDS011;64831;44.870;37.336;2022-11-20T00:13:48;39.83;;;17.10;;
76103;SDS011;64831;44.870;37.336;2022-11-20T00:16:18;42.45;;;17.17;;
76103;SDS011;64831;44.870;37.336;2022-11-20T00:18:45;41.47;;;15.50;;
76103;SDS011;64831;44.870;37.336;2022-11-20T00:21:21;42.40;;;16.45;;
76103;SDS011;64831;44.870;37.336;2022-11-20T00:23:50;38.75;;;17.13;;
76103;SDS011;64831;44.870;37.336;2022-11-20T00:26:18;34.70;;;15.25;;
76103;SDS011;64831;44.870;37.336;2022-11-20T00:28:48;35.50;;;16.65;;
76103;SDS011;64831;44.870;37.336;2022-11-20T00:31:18;36.75;;;15.73;;
76103;SDS011;64831;44.870;37.336;2022-11-20T00:33:44;34.72;;;14.77;;
76103;SDS011;64831;44.870;37.336;2022-11-20T00:36:12;36.17;;;16.05;;
76103;SDS011;64831;44.870;37.336;2022-11-20T00:38:39;35.47;;;15.63;;
76103;SDS011;64831;44.870;37.336;2022-11-20T00:41:06;36.20;;;15.68;;
76103;SDS011;64831;44.870;37.336;2022-11-20T00:43:34;39.40;;;14.85;;
76103;SDS011;64831;44.870;37.336;2022-11-20T00:46:01;36.83;;;15.77;;
76103;SDS011;64831;44.870;37.336;2022-11-20T00:48:46;31.52;;;15.00;;
76103;SDS011;64831;44.870;37.336;2022-11-20T00:51:16;39.80;;;15.50;;
76103;SDS011;64831;44.870;37.336;2022-11-20T00:53:44;32.85;;;13.73;;
76103;SDS011;64831;44.870;37.336;2022-11-20T00:56:11;33.20;;;14.05;;
76103;SDS011;64831;44.870;37.336;2022-11-20T00:58:39;35.80;;;14.88;;
76103;SDS011;64831;44.870;37.336;2022-11-20T01:01:24;35.45;;;15.40;;
76103;SDS011;64831;44.870;37.336;2022-11-20T01:03:51;30.90;;;15.40;;
76103;SDS011;64831;44.870;37.336;2022-11-20T01:06:22;34.30;;;15.77;;
76103;SDS011;64831;44.870;37.336;2022-11-20T01:08:54;29.95;;;14.55;;
76103;SDS011;64831;44.870;37.336;2022-11-20T01:11:22;28.58;;;13.25;;
76103;SDS011;64831;44.870;37.336;2022-11-20T01:13:53;30.23;;;13.38;;
76103;SDS011;64831;44.870;37.336;2022-11-20T01:16:23;29.70;;;14.30;;
76103;SDS011;64831;44.870;37.336;2022-11-20T01:18:51;28.35;;;11.85;;
76103;SDS011;64831;44.870;37.336;2022-11-20T01:21:26;24.58;;;11.77;;
76103;SDS011;64831;44.870;37.336;2022-11-20T01:23:54;28.55;;;12.45;;
76103;SDS011;64831;44.870;37.336;2022-11-20T01:26:22;29.25;;;12.88;;
76103;SDS011;64831;44.870;37.336;2022-11-20T01:28:55;27.40;;;12.85;;
76103;SDS011;64831;44.870;37.336;2022-11-20T01:31:23;30.65;;;13.20;;
76103;SDS011;64831;44.870;37.336;2022-11-20T01:33:52;26.88;;;13.02;;
76103;SDS011;64831;44.870;37.336;2022-11-20T01:36:20;29.33;;;12.57;;
76103;SDS011;64831;44.870;37.336;2022-11-20T01:38:50;30.15;;;13.18;;
76103;SDS011;64831;44.870;37.336;2022-11-20T01:41:18;31.67;;;13.30;;
76103;SDS011;64831;44.870;37.336;2022-11-20T01:44:03;28.10;;;12.95;;
76103;SDS011;64831;44.870;37.336;2022-11-20T01:46:30;30.67;;;13.43;;
76103;SDS011;64831;44.870;37.336;2022-11-20T01:51:50;28.80;;;13.15;;
76103;SDS011;64831;44.870;37.336;2022-11-20T01:54:28;32.28;;;11.50;;
76103;SDS011;64831;44.870;37.336;2022-11-20T01:57:08;28.77;;;12.82;;
76103;SDS011;64831;44.870;37.336;2022-11-20T01:59:42;31.20;;;13.98;;
76103;SDS011;64831;44.870;37.336;2022-11-20T02:02:17;28.95;;;13.82;;
76103;SDS011;64831;44.870;37.336;2022-11-20T02:04:43;29.40;;;13.18;;
76103;SDS011;64831;44.870;37.336;2022-11-20T02:07:09;37.47;;;12.88;;
76103;SDS011;64831;44.870;37.336;2022-11-20T02:09:36;30.75;;;13.25;;
76103;SDS011;64831;44.870;37.336;2022-11-20T02:12:02;33.17;;;11.18;;
76103;SDS011;64831;44.870;37.336;2022-11-20T02:14:29;34.95;;;10.65;;
76103;SDS011;64831;44.870;37.336;2022-11-20T02:16:55;35.45;;;13.55;;
76103;SDS011;64831;44.870;37.336;2022-11-20T02:19:28;28.23;;;13.05;;
76103;SDS011;64831;44.870;37.336;2022-11-20T02:22:07;28.63;;;12.50;;
76103;SDS011;64831;44.870;37.336;2022-11-20T02:24:38;29.73;;;12.10;;
76103;SDS011;64831;44.870;37.336;2022-11-20T02:27:09;27.60;;;12.43;;
76103;SDS011;64831;44.870;37.336;2022-11-20T02:29:42;26.75;;;11.63;;
76103;SDS011;64831;44.870;37.336;2022-11-20T02:34:48;34.70;;;12.23;;
76103;SDS011;64831;44.870;37.336;2022-11-20T02:37:14;30.90;;;12.07;;
76103;SDS011;64831;44.870;37.336;2022-11-20T02:39:41;28.77;;;11.68;;
76103;SDS011;64831;44.870;37.336;2022-11-20T02:42:07;27.80;;;11.40;;
76103;SDS011;64831;44.870;37.336;2022-11-20T02:44:33;23.58;;;8.43;;
76103;SDS011;64831;44.870;37.336;2022-11-20T02:46:59;20.10;;;10.15;;
76103;SDS011;64831;44.870;37.336;2022-11-20T02:49:25;24.33;;;10.55;;
76103;SDS011;64831;44.870;37.336;2022-11-20T02:51:51;28.13;;;10.75;;
76103;SDS011;64831;44.870;37.336;2022-11-20T02:54:17;20.52;;;10.43;;
76103;SDS011;64831;44.870;37.336;2022-11-20T02:56:43;21.42;;;10.70;;
76103;SDS011;64831;44.870;37.336;2022-11-20T02:59:09;23.92;;;11.18;;
76103;SDS011;64831;44.870;37.336;2022-11-20T03:01:35;32.83;;;12.95;;
76103;SDS011;64831;44.870;37.336;2022-11-20T03:04:01;30.35;;;9.90;;
76103;SDS011;64831;44.870;37.336;2022-11-20T03:06:27;29.42;;;9.13;;
76103;SDS011;64831;44.870;37.336;2022-11-20T03:08:53;26.98;;;8.82;;
76103;SDS011;64831;44.870;37.336;2022-11-20T03:11:19;25.95;;;9.07;;
76103;SDS011;64831;44.870;37.336;2022-11-20T03:13:46;25.65;;;10.02;;
76103;SDS011;64831;44.870;37.336;2022-11-20T03:16:15;25.83;;;8.32;;
76103;SDS011;64831;44.870;37.336;2022-11-20T03:18:43;25.75;;;10.65;;
76103;SDS011;64831;44.870;37.336;2022-11-20T03:21:10;21.08;;;8.02;;
76103;SDS011;64831;44.870;37.336;2022-11-20T03:23:37;18.20;;;6.63;;
76103;SDS011;64831;44.870;37.336;2022-11-20T03:26:22;22.48;;;8.25;;
76103;SDS011;64831;44.870;37.336;2022-11-20T03:28:51;17.38;;;6.40;;
76103;SDS011;64831;44.870;37.336;2022-11-20T03:31:22;13.27;;;6.20;;
76103;SDS011;64831;44.870;37.336;2022-11-20T03:33:51;17.63;;;6.38;;
76103;SDS011;64831;44.870;37.336;2022-11-20T03:36:18;18.95;;;6.53;;
76103;SDS011;64831;44.870;37.336;2022-11-20T03:38:45;16.45;;;7.68;;
76103;SDS011;64831;44.870;37.336;2022-11-20T03:41:16;21.85;;;7.88;;
76103;SDS011;64831;44.870;37.336;2022-11-20T03:43:47;24.92;;;8.23;;
76103;SDS011;64831;44.870;37.336;2022-11-20T03:46:15;20.88;;;9.20;;
76103;SDS011;64831;44.870;37.336;2022-11-20T03:48:40;21.50;;;8.93;;
76103;SDS011;64831;44.870;37.336;2022-11-20T03:51:10;27.70;;;9.93;;
76103;SDS011;64831;44.870;37.336;2022-11-20T03:53:39;20.63;;;9.48;;
76103;SDS011;64831;44.870;37.336;2022-11-20T03:56:06;20.45;;;6.38;;
76103;SDS011;64831;44.870;37.336;2022-11-20T03:58:33;17.02;;;6.40;;
76103;SDS011;64831;44.870;37.336;2022-11-20T04:01:07;20.55;;;8.60;;
76103;SDS011;64831;44.870;37.336;2022-11-20T04:03:34;13.05;;;4.90;;
76103;SDS011;64831;44.870;37.336;2022-11-20T04:06:05;14.55;;;5.45;;
76103;SDS011;64831;44.870;37.336;2022-11-20T04:08:32;12.50;;;5.28;;
76103;SDS011;64831;44.870;37.336;2022-11-20T04:11:19;15.90;;;4.60;;
76103;SDS011;64831;44.870;37.336;2022-11-20T04:13:46;12.70;;;4.20;;
76103;SDS011;64831;44.870;37.336;2022-11-20T04:16:16;10.05;;;4.07;;
76103;SDS011;64831;44.870;37.336;2022-11-20T04:18:42;16.55;;;4.68;;
76103;SDS011;64831;44.870;37.336;2022-11-20T04:21:09;12.95;;;5.03;;
76103;SDS011;64831;44.870;37.336;2022-11-20T04:23:35;16.40;;;5.15;;
76103;SDS011;64831;44.870;37.336;2022-11-20T04:26:09;18.27;;;5.32;;
76103;SDS011;64831;44.870;37.336;2022-11-20T04:28:36;16.10;;;5.28;;
76103;SDS011;64831;44.870;37.336;2022-11-20T04:31:05;18.83;;;5.78;;
76103;SDS011;64831;44.870;37.336;2022-11-20T04:36:03;22.00;;;5.47;;
76103;SDS011;64831;44.870;37.336;2022-11-20T04:38:30;17.30;;;5.40;;
76103;SDS011;64831;44.870;37.336;2022-11-20T04:41:00;17.25;;;5.90;;
76103;SDS011;64831;44.870;37.336;2022-11-20T04:43:28;14.75;;;6.30;;
76103;SDS011;64831;44.870;37.336;2022-11-20T04:45:54;15.38;;;6.25;;
76103;SDS011;64831;44.870;37.336;2022-11-20T04:48:22;21.52;;;6.18;;
76103;SDS011;64831;44.870;37.336;2022-11-20T04:50:48;19.92;;;6.38;;
76103;SDS011;64831;44.870;37.336;2022-11-20T04:53:14;14.18;;;6.32;;
76103;SDS011;64831;44.870;37.336;2022-11-20T04:55:40;19.85;;;7.25;;
76103;SDS011;64831;44.870;37.336;2022-11-20T04:58:06;23.35;;;8.02;;
76103;SDS011;64831;44.870;37.336;2022-11-20T05:00:32;26.40;;;6.45;;
76103;SDS011;64831;44.870;37.336;2022-11-20T05:02:58;17.23;;;5.85;;
76103;SDS011;64831;44.870;37.336;2022-11-20T05:05:24;18.75;;;6.68;;
76103;SDS011;64831;44.870;37.336;2022-11-20T05:07:49;20.88;;;6.10;;
76103;SDS011;64831;44.870;37.336;2022-11-20T05:10:15;18.00;;;6.32;;
76103;SDS011;64831;44.870;37.336;2022-11-20T05:12:41;20.58;;;6.35;;
76103;SDS011;64831;44.870;37.336;2022-11-20T05:15:07;16.48;;;6.55;;
76103;SDS011;64831;44.870;37.336;2022-11-20T05:17:34;18.20;;;6.72;;
76103;SDS011;64831;44.870;37.336;2022-11-20T05:19:59;16.88;;;6.47;;
76103;SDS011;64831;44.870;37.336;2022-11-20T05:22:25;20.38;;;7.05;;
76103;SDS011;64831;44.870;37.336;2022-11-20T05:24:51;15.65;;;6.97;;
76103;SDS011;64831;44.870;37.336;2022-11-20T05:27:17;17.77;;;6.43;;
76103;SDS011;64831;44.870;37.336;2022-11-20T05:29:43;17.55;;;6.55;;
76103;SDS011;64831;44.870;37.336;2022-11-20T05:32:09;22.45;;;6.93;;
76103;SDS011;64831;44.870;37.336;2022-11-20T05:34:35;20.63;;;6.90;;
76103;SDS011;64831;44.870;37.336;2022-11-20T05:37:02;16.17;;;7.78;;
76103;SDS011;64831;44.870;37.336;2022-11-20T05:39:28;19.58;;;8.20;;
76103;SDS011;64831;44.870;37.336;2022-11-20T05:41:54;21.30;;;8.32;;
76103;SDS011;64831;44.870;37.336;2022-11-20T05:44:38;17.88;;;8.50;;
76103;SDS011;64831;44.870;37.336;2022-11-20T05:47:05;22.45;;;7.75;;
76103;SDS011;64831;44.870;37.336;2022-11-20T05:49:31;25.13;;;8.48;;
76103;SDS011;64831;44.870;37.336;2022-11-20T05:51:57;19.40;;;7.70;;
76103;SDS011;64831;44.870;37.336;2022-11-20T05:54:23;22.40;;;7.63;;
76103;SDS011;64831;44.870;37.336;2022-11-20T05:56:49;27.10;;;12.95;;
76103;SDS011;64831;44.870;37.336;2022-11-20T05:59:15;25.80;;;10.45;;
76103;SDS011;64831;44.870;37.336;2022-11-20T06:01:42;15.50;;;7.72;;
76103;SDS011;64831;44.870;37.336;2022-11-20T06:04:08;16.80;;;8.05;;
76103;SDS011;64831;44.870;37.336;2022-11-20T06:06:33;20.13;;;9.25;;
76103;SDS011;64831;44.870;37.336;2022-11-20T06:08:59;17.38;;;7.65;;
76103;SDS011;64831;44.870;37.336;2022-11-20T06:11:25;19.20;;;7.95;;
76103;SDS011;64831;44.870;37.336;2022-11-20T06:13:51;20.33;;;8.25;;
76103;SDS011;64831;44.870;37.336;2022-11-20T06:16:18;13.77;;;7.03;;
76103;SDS011;64831;44.870;37.336;2022-11-20T06:18:45;14.88;;;6.47;;
76103;SDS011;64831;44.870;37.336;2022-11-20T06:21:12;15.07;;;6.40;;
76103;SDS011;64831;44.870;37.336;2022-11-20T06:23:40;14.27;;;7.13;;
76103;SDS011;64831;44.870;37.336;2022-11-20T06:26:10;11.43;;;6.50;;
76103;SDS011;64831;44.870;37.336;2022-11-20T06:28:38;13.15;;;6.63;;
76103;SDS011;64831;44.870;37.336;2022-11-20T06:31:04;13.57;;;6.60;;
76103;SDS011;64831;44.870;37.336;2022-11-20T06:33:31;11.70;;;6.25;;
76103;SDS011;64831;44.870;37.336;2022-11-20T06:35:58;15.98;;;6.60;;
76103;SDS011;64831;44.870;37.336;2022-11-20T06:38:25;14.90;;;6.28;;
76103;SDS011;64831;44.870;37.336;2022-11-20T06:40:51;16.58;;;6.75;;
76103;SDS011;64831;44.870;37.336;2022-11-20T06:43:18;11.60;;;7.18;;
76103;SDS011;64831;44.870;37.336;2022-11-20T06:45:44;14.85;;;7.18;;
76103;SDS011;64831;44.870;37.336;2022-11-20T06:48:10;12.68;;;6.57;;
76103;SDS011;64831;44.870;37.336;2022-11-20T06:50:36;12.23;;;6.70;;
76103;SDS011;64831;44.870;37.336;2022-11-20T06:53:03;13.57;;;6.32;;
76103;SDS011;64831;44.870;37.336;2022-11-20T06:55:30;14.27;;;7.57;;
76103;SDS011;64831;44.870;37.336;2022-11-20T06:57:57;15.07;;;7.97;;
76103;SDS011;64831;44.870;37.336;2022-11-20T07:00:23;15.63;;;7.28;;
76103;SDS011;64831;44.870;37.336;2022-11-20T07:02:49;10.55;;;6.30;;
76103;SDS011;64831;44.870;37.336;2022-11-20T07:05:16;11.70;;;5.93;;
76103;SDS011;64831;44.870;37.336;2022-11-20T07:07:42;11.35;;;6.22;;
76103;SDS011;64831;44.870;37.336;2022-11-20T07:10:09;9.63;;;5.68;;
76103;SDS011;64831;44.870;37.336;2022-11-20T07:12:35;13.75;;;5.78;;
76103;SDS011;64831;44.870;37.336;2022-11-20T07:15:01;14.02;;;6.32;;
76103;SDS011;64831;44.870;37.336;2022-11-20T07:17:27;19.45;;;6.80;;
76103;SDS011;64831;44.870;37.336;2022-11-20T07:19:53;13.00;;;6.07;;
76103;SDS011;64831;44.870;37.336;2022-11-20T07:22:19;11.23;;;5.75;;
76103;SDS011;64831;44.870;37.336;2022-11-20T07:24:47;10.82;;;5.60;;
76103;SDS011;64831;44.870;37.336;2022-11-20T07:27:13;10.40;;;6.60;;
76103;SDS011;64831;44.870;37.336;2022-11-20T07:29:39;13.30;;;6.57;;
76103;SDS011;64831;44.870;37.336;2022-11-20T07:32:05;10.38;;;6.13;;
76103;SDS011;64831;44.870;37.336;2022-11-20T07:34:31;13.20;;;5.53;;
76103;SDS011;64831;44.870;37.336;2022-11-20T07:36:57;9.52;;;5.97;;
76103;SDS011;64831;44.870;37.336;2022-11-20T07:39:23;11.25;;;6.10;;
76103;SDS011;64831;44.870;37.336;2022-11-20T07:41:49;12.45;;;5.78;;
76103;SDS011;64831;44.870;37.336;2022-11-20T07:44:14;11.30;;;6.20;;
76103;SDS011;64831;44.870;37.336;2022-11-20T07:46:40;10.95;;;5.57;;
76103;SDS011;64831;44.870;37.336;2022-11-20T07:49:06;12.60;;;5.97;;
76103;SDS011;64831;44.870;37.336;2022-11-20T07:51:32;15.48;;;6.07;;
76103;SDS011;64831;44.870;37.336;2022-11-20T07:53:58;10.02;;;4.82;;
76103;SDS011;64831;44.870;37.336;2022-11-20T07:56:24;13.95;;;6.88;;
76103;SDS011;64831;44.870;37.336;2022-11-20T07:58:50;12.68;;;6.00;;
76103;SDS011;64831;44.870;37.336;2022-11-20T08:01:16;13.05;;;5.55;;
76103;SDS011;64831;44.870;37.336;2022-11-20T08:03:42;10.73;;;5.60;;
76103;SDS011;64831;44.870;37.336;2022-11-20T08:06:08;10.15;;;5.72;;
76103;SDS011;64831;44.870;37.336;2022-11-20T08:08:34;11.82;;;6.15;;
76103;SDS011;64831;44.870;37.336;2022-11-20T08:11:00;9.57;;;5.40;;
76103;SDS011;64831;44.870;37.336;2022-11-20T08:13:44;8.48;;;5.40;;
76103;SDS011;64831;44.870;37.336;2022-11-20T08:16:29;11.00;;;5.65;;
76103;SDS011;64831;44.870;37.336;2022-11-20T08:18:55;10.93;;;5.90;;
76103;SDS011;64831;44.870;37.336;2022-11-20T08:21:21;10.80;;;6.47;;
76103;SDS011;64831;44.870;37.336;2022-11-20T08:23:47;11.52;;;6.63;;
76103;SDS011;64831;44.870;37.336;2022-11-20T08:26:13;10.98;;;6.90;;
76103;SDS011;64831;44.870;37.336;2022-11-20T08:28:39;10.50;;;6.43;;
76103;SDS011;64831;44.870;37.336;2022-11-20T08:31:05;10.80;;;6.82;;
76103;SDS011;64831;44.870;37.336;2022-11-20T08:33:31;12.02;;;6.60;;
76103;SDS011;64831;44.870;37.336;2022-11-20T08:35:59;11.90;;;6.53;;
76103;SDS011;64831;44.870;37.336;2022-11-20T08:38:26;12.25;;;6.70;;
76103;SDS011;64831;44.870;37.336;2022-11-20T08:40:52;11.98;;;6.97;;
76103;SDS011;64831;44.870;37.336;2022-11-20T08:43:39;13.27;;;7.07;;
76103;SDS011;64831;44.870;37.336;2022-11-20T08:46:05;13.80;;;7.00;;
76103;SDS011;64831;44.870;37.336;2022-11-20T08:48:31;14.57;;;7.35;;
76103;SDS011;64831;44.870;37.336;2022-11-20T08:50:58;11.90;;;7.32;;
76103;SDS011;64831;44.870;37.336;2022-11-20T08:53:25;12.45;;;6.82;;
76103;SDS011;64831;44.870;37.336;2022-11-20T08:55:51;13.02;;;7.47;;
76103;SDS011;64831;44.870;37.336;2022-11-20T08:58:17;12.70;;;6.50;;
76103;SDS011;64831;44.870;37.336;2022-11-20T09:00:43;11.73;;;6.50;;
76103;SDS011;64831;44.870;37.336;2022-11-20T09:03:09;13.05;;;6.70;;
76103;SDS011;64831;44.870;37.336;2022-11-20T09:05:35;16.33;;;6.72;;
76103;SDS011;64831;44.870;37.336;2022-11-20T09:08:01;12.20;;;6.78;;
76103;SDS011;64831;44.870;37.336;2022-11-20T09:10:27;12.15;;;6.13;;
76103;SDS011;64831;44.870;37.336;2022-11-20T09:12:53;11.00;;;6.63;;
76103;SDS011;64831;44.870;37.336;2022-11-20T09:15:20;10.57;;;6.57;;
76103;SDS011;64831;44.870;37.336;2022-11-20T09:17:53;14.15;;;7.10;;
76103;SDS011;64831;44.870;37.336;2022-11-20T09:20:23;14.10;;;7.22;;
76103;SDS011;64831;44.870;37.336;2022-11-20T09:22:50;12.18;;;7.38;;
76103;SDS011;64831;44.870;37.336;2022-11-20T09:25:16;11.85;;;6.65;;
76103;SDS011;64831;44.870;37.336;2022-11-20T09:27:43;11.48;;;6.75;;
76103;SDS011;64831;44.870;37.336;2022-11-20T09:30:11;14.82;;;7.47;;
76103;SDS011;64831;44.870;37.336;2022-11-20T09:32:39;18.05;;;6.80;;
76103;SDS011;64831;44.870;37.336;2022-11-20T09:35:05;16.05;;;6.90;;
76103;SDS011;64831;44.870;37.336;2022-11-20T09:37:31;13.25;;;7.20;;
76103;SDS011;64831;44.870;37.336;2022-11-20T09:40:00;16.90;;;8.13;;
76103;SDS011;64831;44.870;37.336;2022-11-20T09:42:45;14.20;;;7.10;;
76103;SDS011;64831;44.870;37.336;2022-11-20T09:50:25;11.18;;;5.75;;
76103;SDS011;64831;44.870;37.336;2022-11-20T09:53:11;15.85;;;6.68;;
76103;SDS011;64831;44.870;37.336;2022-11-20T09:55:56;12.27;;;6.40;;
76103;SDS011;64831;44.870;37.336;2022-11-20T09:58:42;15.00;;;6.68;;
76103;SDS011;64831;44.870;37.336;2022-11-20T10:01:15;13.65;;;6.13;;
76103;SDS011;64831;44.870;37.336;2022-11-20T10:06:11;13.77;;;5.95;;
76103;SDS011;64831;44.870;37.336;2022-11-20T10:08:47;14.63;;;6.10;;
76103;SDS011;64831;44.870;37.336;2022-11-20T10:14:16;9.13;;;5.75;;
76103;SDS011;64831;44.870;37.336;2022-11-20T10:25:16;12.57;;;6.38;;
76103;SDS011;64831;44.870;37.336;2022-11-20T10:28:01;11.90;;;5.63;;
76103;SDS011;64831;44.870;37.336;2022-11-20T10:30:45;11.30;;;6.20;;
76103;SDS011;64831;44.870;37.336;2022-11-20T10:33:16;11.40;;;5.82;;
76103;SDS011;64831;44.870;37.336;2022-11-20T10:36:00;9.68;;;4.90;;
76103;SDS011;64831;44.870;37.336;2022-11-20T10:38:38;10.23;;;6.35;;
76103;SDS011;64831;44.870;37.336;2022-11-20T10:41:08;8.98;;;5.25;;
76103;SDS011;64831;44.870;37.336;2022-11-20T10:44:05;12.88;;;5.82;;
76103;SDS011;64831;44.870;37.336;2022-11-20T10:46:44;12.95;;;5.63;;
76103;SDS011;64831;44.870;37.336;2022-11-20T10:49:16;10.57;;;5.90;;
76103;SDS011;64831;44.870;37.336;2022-11-20T10:52:10;12.82;;;5.72;;
76103;SDS011;64831;44.870;37.336;2022-11-20T10:54:58;15.95;;;5.80;;
76103;SDS011;64831;44.870;37.336;2022-11-20T11:00:22;11.57;;;6.03;;
76103;SDS011;64831;44.870;37.336;2022-11-20T11:02:52;15.80;;;5.82;;
76103;SDS011;64831;44.870;37.336;2022-11-20T11:05:27;17.58;;;5.40;;
76103;SDS011;64831;44.870;37.336;2022-11-20T11:08:13;11.90;;;5.55;;
76103;SDS011;64831;44.870;37.336;2022-11-20T11:13:47;11.77;;;5.00;;
76103;SDS011;64831;44.870;37.336;2022-11-20T11:16:24;12.52;;;4.82;;
76103;SDS011;64831;44.870;37.336;2022-11-20T11:18:51;10.77;;;5.03;;
76103;SDS011;64831;44.870;37.336;2022-11-20T11:21:29;9.70;;;4.65;;
76103;SDS011;64831;44.870;37.336;2022-11-20T13:33:49;15.40;;;6.65;;
76103;SDS011;64831;44.870;37.336;2022-11-20T13:36:21;18.33;;;7.88;;
76103;SDS011;64831;44.870;37.336;2022-11-20T13:38:53;17.85;;;8.38;;
76103;SDS011;64831;44.870;37.336;2022-11-20T13:41:27;14.32;;;6.45;;
76103;SDS011;64831;44.870;37.336;2022-11-20T13:44:09;18.57;;;7.63;;
76103;SDS011;64831;44.870;37.336;2022-11-20T13:46:55;15.85;;;6.93;;
76103;SDS011;64831;44.870;37.336;2022-11-20T13:49:39;19.33;;;7.03;;
76103;SDS011;64831;44.870;37.336;2022-11-20T13:54:55;18.50;;;7.45;;
76103;SDS011;64831;44.870;37.336;2022-11-20T13:57:48;20.75;;;6.63;;
76103;SDS011;64831;44.870;37.336;2022-11-20T14:00:24;16.63;;;6.90;;
76103;SDS011;64831;44.870;37.336;2022-11-20T14:05:45;15.93;;;6.57;;
76103;SDS011;64831;44.870;37.336;2022-11-20T14:08:45;16.15;;;6.15;;
76103;SDS011;64831;44.870;37.336;2022-11-20T14:11:20;15.30;;;6.30;;
76103;SDS011;64831;44.870;37.336;2022-11-20T14:14:03;15.70;;;7.00;;
76103;SDS011;64831;44.870;37.336;2022-11-20T14:16:38;15.65;;;6.57;;
76103;SDS011;64831;44.870;37.336;2022-11-20T14:21:51;14.30;;;7.00;;
76103;SDS011;64831;44.870;37.336;2022-11-20T14:24:19;13.15;;;6.35;;
76103;SDS011;64831;44.870;37.336;2022-11-20T14:26:47;13.82;;;6.13;;
76103;SDS011;64831;44.870;37.336;2022-11-20T14:29:19;14.52;;;6.93;;
76103;SDS011;64831;44.870;37.336;2022-11-20T14:31:47;15.60;;;6.57;;
76103;SDS011;64831;44.870;37.336;2022-11-20T14:34:19;19.60;;;6.88;;
76103;SDS011;64831;44.870;37.336;2022-11-20T14:36:47;17.17;;;6.38;;
76103;SDS011;64831;44.870;37.336;2022-11-20T14:39:22;14.75;;;7.20;;
76103;SDS011;64831;44.870;37.336;2022-11-20T14:41:57;19.00;;;7.45;;
76103;SDS011;64831;44.870;37.336;2022-11-20T14:44:24;29.30;;;14.82;;
76103;SDS011;64831;44.870;37.336;2022-11-20T14:46:53;19.13;;;7.40;;
76103;SDS011;64831;44.870;37.336;2022-11-20T14:49:20;14.65;;;7.15;;
76103;SDS011;64831;44.870;37.336;2022-11-20T14:51:46;18.17;;;7.47;;
76103;SDS011;64831;44.870;37.336;2022-11-20T14:54:24;17.48;;;8.25;;
76103;SDS011;64831;44.870;37.336;2022-11-20T14:59:26;16.27;;;7.55;;
76103;SDS011;64831;44.870;37.336;2022-11-20T15:01:55;21.05;;;8.23;;
76103;SDS011;64831;44.870;37.336;2022-11-20T15:04:21;18.20;;;7.28;;
76103;SDS011;64831;44.870;37.336;2022-11-20T15:06:52;20.13;;;7.28;;
76103;SDS011;64831;44.870;37.336;2022-11-20T15:09:23;26.08;;;7.97;;
76103;SDS011;64831;44.870;37.336;2022-11-20T15:11:54;19.20;;;8.05;;
76103;SDS011;64831;44.870;37.336;2022-11-20T15:14:22;17.40;;;6.90;;
76103;SDS011;64831;44.870;37.336;2022-11-20T15:16:50;16.23;;;6.55;;
76103;SDS011;64831;44.870;37.336;2022-11-20T15:19:20;20.70;;;6.53;;
76103;SDS011;64831;44.870;37.336;2022-11-20T15:21:50;21.80;;;6.60;;
76103;SDS011;64831;44.870;37.336;2022-11-20T15:24:16;16.15;;;6.90;;
76103;SDS011;64831;44.870;37.336;2022-11-20T15:26:43;15.30;;;7.00;;
76103;SDS011;64831;44.870;37.336;2022-11-20T15:29:10;19.90;;;6.65;;
76103;SDS011;64831;44.870;37.336;2022-11-20T15:31:38;16.60;;;7.32;;
76103;SDS011;64831;44.870;37.336;2022-11-20T15:34:12;19.00;;;6.63;;
76103;SDS011;64831;44.870;37.336;2022-11-20T15:36:39;18.63;;;6.32;;
76103;SDS011;64831;44.870;37.336;2022-11-20T15:39:06;19.70;;;8.10;;
76103;SDS011;64831;44.870;37.336;2022-11-20T15:41:35;20.20;;;9.50;;
76103;SDS011;64831;44.870;37.336;2022-11-20T15:44:02;12.90;;;7.13;;
76103;SDS011;64831;44.870;37.336;2022-11-20T15:46:30;19.42;;;7.10;;
76103;SDS011;64831;44.870;37.336;2022-11-20T15:49:02;16.00;;;7.00;;
76103;SDS011;64831;44.870;37.336;2022-11-20T15:51:30;13.15;;;6.65;;
76103;SDS011;64831;44.870;37.336;2022-11-20T15:53:59;16.85;;;6.45;;
76103;SDS011;64831;44.870;37.336;2022-11-20T15:56:27;17.83;;;7.03;;
76103;SDS011;64831;44.870;37.336;2022-11-20T15:58:53;15.60;;;6.38;;
76103;SDS011;64831;44.870;37.336;2022-11-20T16:01:20;16.38;;;7.70;;
76103;SDS011;64831;44.870;37.336;2022-11-20T16:03:47;16.27;;;6.47;;
76103;SDS011;64831;44.870;37.336;2022-11-20T16:06:13;17.17;;;6.32;;
76103;SDS011;64831;44.870;37.336;2022-11-20T16:08:44;15.43;;;6.22;;
76103;SDS011;64831;44.870;37.336;2022-11-20T16:11:12;15.88;;;6.75;;
76103;SDS011;64831;44.870;37.336;2022-11-20T16:13:39;18.45;;;7.28;;
76103;SDS011;64831;44.870;37.336;2022-11-20T16:16:28;20.67;;;8.00;;
76103;SDS011;64831;44.870;37.336;2022-11-20T16:18:57;16.30;;;6.82;;
76103;SDS011;64831;44.870;37.336;2022-11-20T16:21:24;17.65;;;6.43;;
76103;SDS011;64831;44.870;37.336;2022-11-20T16:23:59;12.80;;;5.75;;
76103;SDS011;64831;44.870;37.336;2022-11-20T16:26:27;11.88;;;5.97;;
76103;SDS011;64831;44.870;37.336;2022-11-20T16:28:54;16.42;;;6.68;;
76103;SDS011;64831;44.870;37.336;2022-11-20T16:31:20;12.82;;;5.70;;
76103;SDS011;64831;44.870;37.336;2022-11-20T16:33:53;15.30;;;6.00;;
76103;SDS011;64831;44.870;37.336;2022-11-20T16:36:22;13.13;;;5.32;;
76103;SDS011;64831;44.870;37.336;2022-11-20T16:38:52;18.20;;;5.88;;
76103;SDS011;64831;44.870;37.336;2022-11-20T16:41:19;14.77;;;6.93;;
76103;SDS011;64831;44.870;37.336;2022-11-20T16:43:46;14.07;;;5.57;;
76103;SDS011;64831;44.870;37.336;2022-11-20T16:46:17;12.77;;;5.53;;
76103;SDS011;64831;44.870;37.336;2022-11-20T16:48:45;14.80;;;5.40;;
76103;SDS011;64831;44.870;37.336;2022-11-20T16:51:20;14.50;;;6.15;;
76103;SDS011;64831;44.870;37.336;2022-11-20T16:53:47;11.73;;;4.97;;
76103;SDS011;64831;44.870;37.336;2022-11-20T16:56:16;15.20;;;5.13;;
76103;SDS011;64831;44.870;37.336;2022-11-20T16:58:44;13.30;;;5.63;;
76103;SDS011;64831;44.870;37.336;2022-11-20T17:01:12;14.80;;;5.60;;
76103;SDS011;64831;44.870;37.336;2022-11-20T17:06:12;14.77;;;5.35;;
76103;SDS011;64831;44.870;37.336;2022-11-20T17:08:39;9.48;;;5.05;;
76103;SDS011;64831;44.870;37.336;2022-11-20T17:11:06;14.55;;;5.50;;
76103;SDS011;64831;44.870;37.336;2022-11-20T17:13:34;19.05;;;5.88;;
76103;SDS011;64831;44.870;37.336;2022-11-20T17:16:05;13.90;;;5.45;;
76103;SDS011;64831;44.870;37.336;2022-11-20T17:18:33;18.70;;;9.82;;
76103;SDS011;64831;44.870;37.336;2022-11-20T17:20:59;15.70;;;6.40;;
76103;SDS011;64831;44.870;37.336;2022-11-20T17:23:33;19.50;;;6.68;;
76103;SDS011;64831;44.870;37.336;2022-11-20T17:26:07;18.13;;;6.13;;
76103;SDS011;64831;44.870;37.336;2022-11-20T17:28:35;14.68;;;5.93;;